createdAt,value
2018-01-01T00:00:56.785Z,99.90
2018-01-01T00:03:23.195Z,99.90
2018-01-01T00:05:50.289Z,99.90
2018-01-01T00:08:16.621Z,99.90
2018-01-01T00:10:42.966Z,99.90
2018-01-01T00:13:09.298Z,99.90
2018-01-01T00:15:35.682Z,99.90
2018-01-01T00:18:02.865Z,99.90
2018-01-01T00:20:29.263Z,99.90
2018-01-01T00:22:56.347Z,99.90
2018-01-01T00:25:22.730Z,99.90
2018-01-01T00:27:49.083Z,99.90
2018-01-01T00:30:16.164Z,99.90
2018-01-01T00:32:42.511Z,99.90
2018-01-01T00:35:08.842Z,99.90
2018-01-01T00:37:35.192Z,99.90
2018-01-01T00:40:01.541Z,99.90
2018-01-01T00:42:28.678Z,99.90
2018-01-01T00:44:54.987Z,99.90
2018-01-01T00:47:22.339Z,99.90
2018-01-01T00:49:48.669Z,99.90
2018-01-01T00:52:15.030Z,99.90
2018-01-01T00:54:41.431Z,99.90
2018-01-01T00:57:07.777Z,99.90
2018-01-01T00:59:34.129Z,99.90
2018-01-01T01:02:00.479Z,99.90
2018-01-01T01:04:27.556Z,99.90
2018-01-01T01:06:53.939Z,99.90
2018-01-01T01:09:20.270Z,99.90
2018-01-01T01:11:46.617Z,99.90
2018-01-01T01:14:12.966Z,99.90
2018-01-01T01:16:40.078Z,99.90
2018-01-01T01:19:06.406Z,99.90
2018-01-01T01:21:32.749Z,99.90
2018-01-01T01:23:59.117Z,99.90
2018-01-01T01:26:26.210Z,99.90
2018-01-01T01:28:52.544Z,99.90
2018-01-01T01:31:18.886Z,99.90
2018-01-01T01:33:45.249Z,99.90
2018-01-01T01:36:12.326Z,99.90
2018-01-01T01:38:38.663Z,99.90
2018-01-01T01:41:04.987Z,99.90
2018-01-01T01:43:31.350Z,99.90
2018-01-01T01:45:57.688Z,99.90
2018-01-01T01:48:24.089Z,99.90
2018-01-01T01:50:51.471Z,99.90
2018-01-01T01:53:17.859Z,99.90
2018-01-01T01:55:44.982Z,99.90
2018-01-01T01:58:11.350Z,99.90
2018-01-01T02:00:37.729Z,99.90
2018-01-01T02:03:04.074Z,99.90
2018-01-01T02:05:30.494Z,99.90
2018-01-01T02:07:56.863Z,99.90
2018-01-01T02:10:23.937Z,99.90
2018-01-01T02:12:50.272Z,99.90
2018-01-01T02:15:16.649Z,99.90
2018-01-01T02:17:43.990Z,99.90
2018-01-01T02:20:10.327Z,99.90
2018-01-01T02:22:36.666Z,99.90
2018-01-01T02:25:03.049Z,99.90
2018-01-01T02:27:29.386Z,99.90
2018-01-01T02:29:55.742Z,99.90
2018-01-01T02:32:32.238Z,99.90
2018-01-01T02:34:58.565Z,99.90
2018-01-01T02:37:24.906Z,99.90
2018-01-01T02:39:51.273Z,99.90
2018-01-01T02:42:17.646Z,99.90
2018-01-01T02:44:43.974Z,99.90
2018-01-01T02:47:10.302Z,99.90
2018-01-01T02:49:36.634Z,99.90
2018-01-01T02:52:03.000Z,99.90
2018-01-01T02:54:29.398Z,99.90
2018-01-01T02:56:55.848Z,99.90
2018-01-01T02:59:22.207Z,99.90
2018-01-01T03:01:48.542Z,99.90
2018-01-01T03:04:15.619Z,99.90
2018-01-01T03:06:41.998Z,99.90
2018-01-01T03:09:08.352Z,99.90
2018-01-01T03:11:35.434Z,99.90
2018-01-01T03:14:01.784Z,99.90
2018-01-01T03:16:28.129Z,99.90
2018-01-01T03:18:54.474Z,99.90
2018-01-01T03:21:20.810Z,99.90
2018-01-01T03:23:47.143Z,99.90
2018-01-01T03:26:13.467Z,99.90
2018-01-01T03:28:39.830Z,99.90
2018-01-01T03:31:07.921Z,99.90
2018-01-01T03:33:34.275Z,99.90
2018-01-01T03:36:01.668Z,99.90
2018-01-01T03:38:28.193Z,99.90
2018-01-01T03:40:54.595Z,99.90
2018-01-01T03:43:21.027Z,99.90
2018-01-01T03:45:47.382Z,99.90
2018-01-01T03:48:13.722Z,99.90
2018-01-01T03:50:40.101Z,99.90
2018-01-01T03:53:07.186Z,99.90
2018-01-01T03:55:33.517Z,99.90
2018-01-01T03:57:59.854Z,99.90
2018-01-01T04:00:26.194Z,99.90
2018-01-01T04:02:52.556Z,99.90
2018-01-01T04:05:18.906Z,99.90
2018-01-01T04:07:45.286Z,99.90
2018-01-01T04:10:11.631Z,99.90
2018-01-01T04:12:38.030Z,99.90
2018-01-01T04:15:04.347Z,99.90
2018-01-01T04:17:30.679Z,99.90
2018-01-01T04:19:57.009Z,99.90
2018-01-01T04:22:23.373Z,99.90
2018-01-01T04:24:49.698Z,99.90
2018-01-01T04:27:16.037Z,99.90
2018-01-01T04:29:42.383Z,99.90
2018-01-01T04:32:08.726Z,99.90
2018-01-01T04:34:35.074Z,99.90
2018-01-01T04:37:01.407Z,99.90
2018-01-01T04:39:28.510Z,99.90
2018-01-01T04:41:54.856Z,99.90
2018-01-01T04:44:21.214Z,99.90
2018-01-01T04:46:47.566Z,99.90
2018-01-01T04:49:14.650Z,99.90
2018-01-01T04:51:41.006Z,99.90
2018-01-01T04:54:07.359Z,99.90
2018-01-01T04:56:34.455Z,99.90
2018-01-01T04:59:00.824Z,99.90
2018-01-01T05:01:27.168Z,99.90
2018-01-01T05:03:53.654Z,99.90
2018-01-01T05:06:20.058Z,99.90
2018-01-01T05:08:46.452Z,99.90
2018-01-01T05:11:12.793Z,99.90
2018-01-01T05:13:39.192Z,99.90
2018-01-01T05:16:05.554Z,99.90
2018-01-01T05:18:31.994Z,99.90
2018-01-01T05:20:58.375Z,99.90
2018-01-01T05:23:25.476Z,99.90
2018-01-01T05:25:51.964Z,99.90
2018-01-01T05:28:18.882Z,99.90
2018-01-01T05:30:46.011Z,99.90
2018-01-01T05:33:12.383Z,99.90
2018-01-01T05:35:38.751Z,99.90
2018-01-01T05:38:05.104Z,99.90
2018-01-01T05:40:31.469Z,99.90
2018-01-01T05:42:58.578Z,99.90
2018-01-01T05:45:24.920Z,99.90
2018-01-01T05:47:51.302Z,99.90
2018-01-01T05:50:17.666Z,99.90
2018-01-01T05:52:44.114Z,99.90
2018-01-01T05:55:10.459Z,99.90
2018-01-01T05:57:36.822Z,99.90
2018-01-01T06:00:03.249Z,99.90
2018-01-01T06:02:29.577Z,99.90
2018-01-01T06:04:56.666Z,99.90
2018-01-01T06:07:23.087Z,99.90
2018-01-01T06:09:49.410Z,99.90
2018-01-01T06:12:15.784Z,99.90
2018-01-01T06:14:42.158Z,99.90
2018-01-01T06:17:10.251Z,99.90
2018-01-01T06:19:36.735Z,99.90
2018-01-01T06:22:03.086Z,99.90
2018-01-01T06:24:30.274Z,99.90
2018-01-01T06:26:56.711Z,99.90
2018-01-01T06:29:23.133Z,99.90
2018-01-01T06:31:50.213Z,99.90
2018-01-01T06:34:16.628Z,99.90
2018-01-01T06:36:42.974Z,99.90
2018-01-01T06:39:09.333Z,99.90
2018-01-01T06:41:35.709Z,99.90
2018-01-01T06:44:02.207Z,99.90
2018-01-01T06:46:28.570Z,99.90
2018-01-01T06:48:59.060Z,99.90
2018-01-01T06:51:25.431Z,99.90
2018-01-01T06:53:52.847Z,99.90
2018-01-01T06:56:19.376Z,99.90
2018-01-01T06:58:45.731Z,99.90
2018-01-01T07:01:12.114Z,99.90
2018-01-01T07:03:38.514Z,99.90
2018-01-01T07:06:05.653Z,99.90
2018-01-01T07:08:32.033Z,99.90
2018-01-01T07:10:58.418Z,99.90
2018-01-01T07:13:25.515Z,99.90
2018-01-01T07:15:52.092Z,99.90
2018-01-01T07:18:18.521Z,99.90
2018-01-01T07:20:44.858Z,99.90
2018-01-01T07:23:11.214Z,99.90
2018-01-01T07:25:38.291Z,99.90
2018-01-01T07:28:04.662Z,99.90
2018-01-01T07:30:31.007Z,99.90
2018-01-01T07:32:57.476Z,99.90
2018-01-01T07:35:23.839Z,99.90
2018-01-01T07:37:50.171Z,99.90
2018-01-01T07:40:16.533Z,99.90
2018-01-01T07:42:44.030Z,99.90
2018-01-01T07:45:10.390Z,99.90
2018-01-01T07:47:36.939Z,99.90
2018-01-01T07:50:03.388Z,99.90
2018-01-01T07:52:29.788Z,99.90
2018-01-01T07:54:56.117Z,99.90
2018-01-01T07:57:22.490Z,99.90
2018-01-01T07:59:48.814Z,99.90
2018-01-01T08:02:15.159Z,99.90
2018-01-01T08:04:41.555Z,99.90
2018-01-01T08:07:07.882Z,99.90
2018-01-01T08:09:34.241Z,99.90
2018-01-01T08:12:00.587Z,99.90
2018-01-01T08:14:26.957Z,99.90
2018-01-01T08:16:53.298Z,99.90
2018-01-01T08:19:19.676Z,99.90
2018-01-01T08:21:46.039Z,99.90
2018-01-01T08:24:13.166Z,99.90
2018-01-01T08:26:39.521Z,99.90
2018-01-01T08:29:05.907Z,99.90
2018-01-01T08:31:32.267Z,99.90
2018-01-01T08:33:58.626Z,99.90
2018-01-01T08:36:24.999Z,99.90
2018-01-01T08:38:51.401Z,99.90
2018-01-01T08:41:18.097Z,99.90
2018-01-01T08:43:45.230Z,99.90
2018-01-01T08:46:12.570Z,99.90
2018-01-01T08:48:39.891Z,99.90
2018-01-01T08:51:06.269Z,99.90
2018-01-01T08:53:32.722Z,99.90
2018-01-01T08:56:00.723Z,99.90
2018-01-01T08:58:28.056Z,99.90
2018-01-01T09:00:54.378Z,99.90
2018-01-01T09:03:21.304Z,99.90
2018-01-01T09:05:47.662Z,99.90
2018-01-01T09:08:14.057Z,99.90
2018-01-01T09:10:41.316Z,99.90
2018-01-01T09:13:07.654Z,99.90
2018-01-01T09:15:34.015Z,99.90
2018-01-01T09:18:00.390Z,99.90
2018-01-01T09:20:26.776Z,99.90
2018-01-01T09:22:53.946Z,99.90
2018-01-01T09:25:21.266Z,99.90
2018-01-01T09:27:47.607Z,99.90
2018-01-01T09:30:14.644Z,99.90
2018-01-01T09:32:40.963Z,99.90
2018-01-01T09:35:07.294Z,99.90
2018-01-01T09:37:33.683Z,99.90
2018-01-01T09:40:00.049Z,99.90
2018-01-01T09:42:26.418Z,99.90
2018-01-01T09:44:52.831Z,99.90
2018-01-01T09:47:19.165Z,99.90
2018-01-01T09:49:45.506Z,99.90
2018-01-01T09:52:11.858Z,99.90
2018-01-01T09:54:38.948Z,99.90
2018-01-01T09:57:05.269Z,99.90
2018-01-01T09:59:32.359Z,99.90
2018-01-01T10:01:58.750Z,99.90
2018-01-01T10:04:25.106Z,99.90
2018-01-01T10:06:51.612Z,99.90
2018-01-01T10:09:18.064Z,99.90
2018-01-01T10:11:44.718Z,99.90
2018-01-01T10:14:11.084Z,99.90
2018-01-01T10:16:37.482Z,99.90
2018-01-01T10:19:03.934Z,99.90
2018-01-01T10:21:30.310Z,99.90
2018-01-01T10:23:57.392Z,99.90
2018-01-01T10:26:24.427Z,99.90
2018-01-01T10:28:50.787Z,99.90
2018-01-01T10:31:17.122Z,99.90
2018-01-01T10:33:43.521Z,99.90
2018-01-01T10:36:09.871Z,99.90
2018-01-01T10:38:36.973Z,99.90
2018-01-01T10:41:04.158Z,99.90
2018-01-01T10:43:30.542Z,99.90
2018-01-01T10:45:56.929Z,99.90
2018-01-01T10:48:23.322Z,99.90
2018-01-01T10:50:50.451Z,99.90
2018-01-01T10:53:16.988Z,99.90
2018-01-01T10:55:43.367Z,99.90
2018-01-01T10:58:09.733Z,99.90
2018-01-01T11:00:36.097Z,99.90
2018-01-01T11:03:02.558Z,99.90
2018-01-01T11:05:29.715Z,99.90
2018-01-01T11:07:56.122Z,99.90
2018-01-01T11:10:23.759Z,99.90
2018-01-01T11:12:50.126Z,99.90
2018-01-01T11:15:16.450Z,99.90
2018-01-01T11:17:44.605Z,99.90
2018-01-01T11:20:10.928Z,99.90
2018-01-01T11:22:37.290Z,99.90
2018-01-01T11:25:04.375Z,99.90
2018-01-01T11:27:30.738Z,99.90
2018-01-01T11:29:58.078Z,99.90
2018-01-01T11:32:24.435Z,99.90
2018-01-01T11:34:50.771Z,99.90
2018-01-01T11:37:17.189Z,99.90
2018-01-01T11:39:43.561Z,99.90
2018-01-01T11:42:11.690Z,99.90
2018-01-01T11:44:38.058Z,99.90
2018-01-01T11:47:04.381Z,99.90
2018-01-01T11:49:32.532Z,99.90
2018-01-01T11:51:58.971Z,99.90
2018-01-01T11:54:25.311Z,99.90
2018-01-01T11:56:52.568Z,99.90
2018-01-01T11:59:18.925Z,99.90
2018-01-01T12:01:47.126Z,99.90
2018-01-01T12:04:13.510Z,99.90
2018-01-01T12:06:39.918Z,99.90
2018-01-01T12:09:06.306Z,99.90
2018-01-01T12:11:33.407Z,99.90
2018-01-01T12:13:59.758Z,99.90
2018-01-01T12:16:29.713Z,99.90
2018-01-01T12:18:56.106Z,99.90
2018-01-01T12:21:23.497Z,99.90
2018-01-01T12:23:51.276Z,99.90
2018-01-01T12:26:17.679Z,99.90
2018-01-01T12:28:44.775Z,99.90
2018-01-01T12:31:11.149Z,99.90
2018-01-01T12:33:37.486Z,99.90
2018-01-01T12:36:03.858Z,99.90
2018-01-01T12:38:30.178Z,99.90
2018-01-01T12:40:56.514Z,99.90
2018-01-01T12:43:22.914Z,99.90
2018-01-01T12:45:49.998Z,99.90
2018-01-01T12:48:17.101Z,99.90
2018-01-01T12:50:44.425Z,99.90
2018-01-01T12:53:11.913Z,99.90
2018-01-01T12:55:38.232Z,99.90
2018-01-01T12:58:04.558Z,99.90
2018-01-01T13:00:30.890Z,99.90
2018-01-01T13:02:57.230Z,99.90
2018-01-01T13:05:23.587Z,99.90
2018-01-01T13:07:50.670Z,99.90
2018-01-01T13:10:17.021Z,99.90
2018-01-01T13:12:43.350Z,99.90
2018-01-01T13:15:09.698Z,99.90
2018-01-01T13:17:36.030Z,99.90
2018-01-01T13:20:02.445Z,99.90
2018-01-01T13:22:28.784Z,99.90
2018-01-01T13:24:55.098Z,99.90
2018-01-01T13:27:21.598Z,99.90
2018-01-01T13:29:48.665Z,98.60
2018-01-01T13:32:15.739Z,98.10
2018-01-01T13:34:42.122Z,98.20
2018-01-01T13:37:08.445Z,97.70
2018-01-01T13:39:34.777Z,95.80
2018-01-01T13:42:01.105Z,94.70
2018-01-01T13:44:28.144Z,93.10
2018-01-01T13:46:54.514Z,91.50
2018-01-01T13:49:20.917Z,90.60
2018-01-01T13:51:47.254Z,91.10
2018-01-01T13:54:13.583Z,89.20
2018-01-01T13:56:40.946Z,87.20
2018-01-01T13:59:07.277Z,84.60
2018-01-01T14:01:34.380Z,79.80
2018-01-01T14:04:00.714Z,79.80
2018-01-01T14:06:27.106Z,83.00
2018-01-01T14:08:54.178Z,79.00
2018-01-01T14:11:20.532Z,79.00
2018-01-01T14:13:46.898Z,79.30
2018-01-01T14:16:13.259Z,78.70
2018-01-01T14:18:39.606Z,76.70
2018-01-01T14:21:06.698Z,71.80
2018-01-01T14:23:33.049Z,71.90
2018-01-01T14:25:59.379Z,74.30
2018-01-01T14:28:25.719Z,74.10
2018-01-01T14:30:52.790Z,72.10
2018-01-01T14:33:19.170Z,72.00
2018-01-01T14:35:46.365Z,72.60
2018-01-01T14:38:13.487Z,71.50
2018-01-01T14:40:39.818Z,71.60
2018-01-01T14:43:06.192Z,71.20
2018-01-01T14:45:32.530Z,68.20
2018-01-01T14:47:58.862Z,67.00
2018-01-01T14:50:26.097Z,66.40
2018-01-01T14:52:53.181Z,64.80
2018-01-01T14:55:19.557Z,64.80
2018-01-01T14:57:46.963Z,64.10
2018-01-01T15:00:13.301Z,63.60
2018-01-01T15:02:39.630Z,64.20
2018-01-01T15:05:05.961Z,64.10
2018-01-01T15:07:32.327Z,64.00
2018-01-01T15:09:58.673Z,64.60
2018-01-01T15:12:25.009Z,64.60
2018-01-01T15:14:51.330Z,63.60
2018-01-01T15:17:17.659Z,63.10
2018-01-01T15:19:44.027Z,63.50
2018-01-01T15:22:10.378Z,63.50
2018-01-01T15:24:36.706Z,64.30
2018-01-01T15:27:03.916Z,65.60
2018-01-01T15:29:31.010Z,69.70
2018-01-01T15:31:57.369Z,69.60
2018-01-01T15:34:23.702Z,71.20
2018-01-01T15:36:50.059Z,72.90
2018-01-01T15:39:16.380Z,76.40
2018-01-01T15:41:42.741Z,79.50
2018-01-01T15:44:09.813Z,82.50
2018-01-01T15:46:36.155Z,82.50
2018-01-01T15:49:02.640Z,83.70
2018-01-01T15:51:28.990Z,84.90
2018-01-01T15:53:56.378Z,85.90
2018-01-01T15:56:22.695Z,89.70
2018-01-01T15:58:49.023Z,91.00
2018-01-01T16:01:15.356Z,92.00
2018-01-01T16:03:41.742Z,93.20
2018-01-01T16:06:08.094Z,93.80
2018-01-01T16:08:35.178Z,98.10
2018-01-01T16:11:01.526Z,98.10
2018-01-01T16:13:27.854Z,99.90
2018-01-01T16:15:54.170Z,99.90
2018-01-01T16:18:20.517Z,99.90
2018-01-01T16:20:47.355Z,99.90
2018-01-01T16:23:13.774Z,99.90
2018-01-01T16:25:40.107Z,99.90
2018-01-01T16:28:06.448Z,99.90
2018-01-01T16:30:32.796Z,99.90
2018-01-01T16:32:59.878Z,99.90
2018-01-01T16:35:26.230Z,99.90
2018-01-01T16:37:53.339Z,99.90
2018-01-01T16:40:19.737Z,99.90
2018-01-01T16:42:47.115Z,99.90
2018-01-01T16:45:13.486Z,99.90
2018-01-01T16:47:39.827Z,99.90
2018-01-01T16:50:06.899Z,99.90
2018-01-01T16:52:33.242Z,99.90
2018-01-01T16:54:59.575Z,99.90
2018-01-01T16:57:25.955Z,99.90
2018-01-01T16:59:52.282Z,99.90
2018-01-01T17:02:18.618Z,99.90
2018-01-01T17:04:44.947Z,99.90
2018-01-01T17:07:11.299Z,99.90
2018-01-01T17:09:38.402Z,99.90
2018-01-01T17:12:04.750Z,99.90
2018-01-01T17:14:31.098Z,99.90
2018-01-01T17:16:57.494Z,99.90
2018-01-01T17:19:23.858Z,99.90
2018-01-01T17:21:50.217Z,99.90
2018-01-01T17:24:16.566Z,99.90
2018-01-01T17:26:42.903Z,99.90
2018-01-01T17:29:09.295Z,99.90
2018-01-01T17:31:35.685Z,99.90
2018-01-01T17:34:02.146Z,99.90
2018-01-01T17:36:28.504Z,99.90
2018-01-01T17:38:55.645Z,99.90
2018-01-01T17:41:22.002Z,99.90
2018-01-01T17:43:49.139Z,99.90
2018-01-01T17:46:17.268Z,99.90
2018-01-01T17:48:43.657Z,99.90
2018-01-01T17:51:10.867Z,99.90
2018-01-01T17:53:37.243Z,99.90
2018-01-01T17:56:05.341Z,99.90
2018-01-01T17:58:31.731Z,99.90
2018-01-01T18:00:58.118Z,99.90
2018-01-01T18:03:25.239Z,99.90
2018-01-01T18:05:51.602Z,99.90
2018-01-01T18:08:18.016Z,99.90
2018-01-01T18:10:44.366Z,99.90
2018-01-01T18:13:11.754Z,99.90
2018-01-01T18:15:38.845Z,99.90
2018-01-01T18:18:05.981Z,99.90
2018-01-01T18:20:33.081Z,99.90
2018-01-01T18:22:59.421Z,99.90
2018-01-01T18:25:25.785Z,99.90
2018-01-01T18:27:52.859Z,99.90
2018-01-01T18:30:19.184Z,99.90
2018-01-01T18:32:46.525Z,99.90
2018-01-01T18:35:13.658Z,99.90
2018-01-01T18:37:40.015Z,99.90
2018-01-01T18:40:07.092Z,99.90
2018-01-01T18:42:33.462Z,99.90
2018-01-01T18:44:59.818Z,99.90
2018-01-01T18:47:26.151Z,99.90
2018-01-01T18:49:53.226Z,99.90
2018-01-01T18:52:19.586Z,99.90
2018-01-01T18:54:45.937Z,99.90
2018-01-01T18:57:12.362Z,99.90
2018-01-01T18:59:38.783Z,99.90
2018-01-01T19:02:05.118Z,99.90
2018-01-01T19:04:31.466Z,99.90
2018-01-01T19:06:57.870Z,99.90
2018-01-01T19:09:24.260Z,99.90
2018-01-01T19:11:51.409Z,99.90
2018-01-01T19:14:18.473Z,99.90
2018-01-01T19:16:46.597Z,99.90
2018-01-01T19:19:13.029Z,99.90
2018-01-01T19:21:39.354Z,99.90
2018-01-01T19:24:05.777Z,99.90
2018-01-01T19:26:32.126Z,99.90
2018-01-01T19:28:58.515Z,99.90
2018-01-01T19:31:24.849Z,99.90
2018-01-01T19:33:51.229Z,99.90
2018-01-01T19:36:17.586Z,99.90
2018-01-01T19:38:44.670Z,99.90
2018-01-01T19:41:11.086Z,99.90
2018-01-01T19:43:38.777Z,99.90
2018-01-01T19:46:05.110Z,99.90
2018-01-01T19:48:31.473Z,99.90
2018-01-01T19:50:58.316Z,99.90
2018-01-01T19:53:24.951Z,99.90
2018-01-01T19:55:51.301Z,99.90
2018-01-01T19:58:17.705Z,99.90
2018-01-01T20:00:45.683Z,99.90
2018-01-01T20:03:14.659Z,99.90
2018-01-01T20:05:41.067Z,99.90
2018-01-01T20:08:07.462Z,99.90
2018-01-01T20:10:33.786Z,99.90
2018-01-01T20:13:00.122Z,99.90
2018-01-01T20:15:26.522Z,99.90
2018-01-01T20:17:52.859Z,99.90
2018-01-01T20:20:19.211Z,99.90
2018-01-01T20:22:45.582Z,99.90
2018-01-01T20:25:12.674Z,99.90
2018-01-01T20:27:38.998Z,99.90
2018-01-01T20:30:05.385Z,99.90
2018-01-01T20:32:32.447Z,99.90
2018-01-01T20:34:59.586Z,99.90
2018-01-01T20:37:26.675Z,99.90
2018-01-01T20:39:52.994Z,99.90
2018-01-01T20:42:19.339Z,99.90
2018-01-01T20:44:46.430Z,99.90
2018-01-01T20:47:12.764Z,99.90
2018-01-01T20:49:39.127Z,99.90
2018-01-01T20:52:05.461Z,99.90
2018-01-01T20:54:31.826Z,99.90
2018-01-01T20:56:59.162Z,99.90
2018-01-01T20:59:26.337Z,99.90
2018-01-01T21:01:52.658Z,99.90
2018-01-01T21:04:18.982Z,99.90
2018-01-01T21:06:45.334Z,99.90
2018-01-01T21:09:11.670Z,99.90
2018-01-01T21:11:38.001Z,99.90
2018-01-01T21:14:04.399Z,99.90
2018-01-01T21:16:31.637Z,99.90
2018-01-01T21:18:59.711Z,99.90
2018-01-01T21:21:26.779Z,99.90
2018-01-01T21:23:53.148Z,99.90
2018-01-01T21:26:19.514Z,99.90
2018-01-01T21:28:46.618Z,99.90
2018-01-01T21:31:12.958Z,99.90
2018-01-01T21:33:39.303Z,99.90
2018-01-01T21:36:05.701Z,99.90
2018-01-01T21:38:32.047Z,99.90
2018-01-01T21:40:58.382Z,99.90
2018-01-01T21:43:24.737Z,99.90
2018-01-01T21:45:51.090Z,99.90
2018-01-01T21:48:18.242Z,99.90
2018-01-01T21:50:45.358Z,99.90
2018-01-01T21:53:11.694Z,99.90
2018-01-01T21:55:38.055Z,99.90
2018-01-01T21:58:04.431Z,99.90
2018-01-01T22:00:30.778Z,99.90
2018-01-01T22:02:57.119Z,99.90
2018-01-01T22:05:23.491Z,99.90
2018-01-01T22:07:49.842Z,99.90
2018-01-01T22:10:16.203Z,99.90
2018-01-01T22:12:42.526Z,99.90
2018-01-01T22:15:08.938Z,99.90
2018-01-01T22:17:35.266Z,99.90
2018-01-01T22:20:01.646Z,99.90
2018-01-01T22:22:27.985Z,99.90
2018-01-01T22:24:54.389Z,99.90
2018-01-01T22:27:20.769Z,99.90
2018-01-01T22:29:47.878Z,99.90
2018-01-01T22:32:14.215Z,99.90
2018-01-01T22:34:40.588Z,99.90
2018-01-01T22:37:07.693Z,99.90
2018-01-01T22:39:34.043Z,99.90
2018-01-01T22:42:00.367Z,99.90
2018-01-01T22:44:26.697Z,99.90
2018-01-01T22:46:53.050Z,99.90
2018-01-01T22:49:19.399Z,99.90
2018-01-01T22:51:45.763Z,99.90
2018-01-01T22:54:12.107Z,99.90
2018-01-01T22:56:38.481Z,99.90
2018-01-01T22:59:05.557Z,99.90
2018-01-01T23:01:31.873Z,99.90
2018-01-01T23:03:59.030Z,99.90
2018-01-01T23:06:26.238Z,99.90
2018-01-01T23:08:52.621Z,99.90
2018-01-01T23:11:18.998Z,99.90
2018-01-01T23:13:45.338Z,99.90
2018-01-01T23:16:11.697Z,99.90
2018-01-01T23:18:38.786Z,99.90
2018-01-01T23:21:05.153Z,99.90
2018-01-01T23:23:31.535Z,99.90
2018-01-01T23:25:57.899Z,99.90
2018-01-01T23:28:24.258Z,99.90
2018-01-01T23:30:50.598Z,99.90
2018-01-01T23:33:16.919Z,99.90
2018-01-01T23:35:43.255Z,99.90
2018-01-01T23:38:09.577Z,99.90
2018-01-01T23:40:35.920Z,99.90
2018-01-01T23:43:02.284Z,99.90
2018-01-01T23:45:28.718Z,99.90
2018-01-01T23:47:55.046Z,99.90
2018-01-01T23:50:22.150Z,99.90
2018-01-01T23:52:48.494Z,99.90
2018-01-01T23:55:14.826Z,99.90
2018-01-01T23:57:41.222Z,99.90
